Time;durP1;ratioP1;P1;durP2;ratioP2;P2;SDS_P1;SDS_P2;PMS_P1;PMS_P2;Temp;Humidity;BMP_temperature;BMP_pressure;BME280_temperature;BME280_humidity;BME280_pressure;Samples;Min_cycle;Max_cycle;Signal;HPM_P1;HPM_P2
2021/05/12 00:00:25;;;;;;;10.25;2.95;;;21.10;79.20;;;;;;5095073;28;20032;-49
2021/05/12 00:02:53;;;;;;;14.18;5.18;;;21.20;79.00;;;;;;5095545;28;20112;-48
2021/05/12 00:05:22;;;;;;;18.65;5.90;;;21.30;78.20;;;;;;5095330;28;20047;-55
2021/05/12 00:07:51;;;;;;;19.75;8.25;;;21.40;77.00;;;;;;5095452;28;20035;-57
2021/05/12 00:10:20;;;;;;;6.28;2.15;;;21.40;77.40;;;;;;5095074;28;20436;-51
2021/05/12 00:12:47;;;;;;;10.88;4.60;;;21.40;77.20;;;;;;5095530;28;20036;-55
2021/05/12 00:15:17;;;;;;;10.52;3.13;;;21.30;77.20;;;;;;5095431;28;20070;-50
2021/05/12 00:17:48;;;;;;;11.00;5.32;;;21.20;78.00;;;;;;5094979;28;20054;-51
2021/05/12 00:20:22;;;;;;;16.23;3.55;;;21.30;78.80;;;;;;5061822;28;20032;-49
2021/05/12 00:22:57;;;;;;;23.92;5.35;;;21.30;77.00;;;;;;5075303;28;20020;-48
2021/05/12 00:25:25;;;;;;;8.25;4.07;;;21.30;77.70;;;;;;5075004;28;20060;-54
2021/05/12 00:27:56;;;;;;;10.25;3.33;;;21.40;79.10;;;;;;5066743;28;20025;-52
2021/05/12 00:30:23;;;;;;;11.20;7.38;;;21.30;76.60;;;;;;5062150;28;20103;-48
2021/05/12 00:32:51;;;;;;;17.17;5.40;;;21.40;79.40;;;;;;5074245;28;20434;-54
2021/05/12 00:35:19;;;;;;;21.55;7.72;;;21.70;76.80;;;;;;5073569;28;20487;-54
2021/05/12 00:37:47;;;;;;;7.28;1.80;;;21.90;76.90;;;;;;5074924;28;20434;-49
2021/05/12 00:40:16;;;;;;;9.35;2.50;;;21.70;75.00;;;;;;5074401;28;20111;-55
2021/05/12 00:42:43;;;;;;;11.05;3.22;;;21.50;75.20;;;;;;5074432;28;20021;-55
2021/05/12 00:45:17;;;;;;;14.18;5.10;;;21.40;78.90;;;;;;5072818;28;20128;-53
2021/05/12 00:47:53;;;;;;;8.50;3.67;;;21.70;78.20;;;;;;5074332;28;20021;-56
2021/05/12 00:50:23;;;;;;;9.60;3.38;;;21.80;75.30;;;;;;5074787;28;20052;-52
2021/05/12 00:52:51;;;;;;;10.70;1.88;;;21.80;75.10;;;;;;5073231;28;20485;-53
2021/05/12 00:55:20;;;;;;;13.52;5.05;;;21.90;75.10;;;;;;5055069;28;20029;-52
2021/05/12 00:57:48;;;;;;;10.30;6.85;;;21.80;75.00;;;;;;5054338;28;20029;-53
2021/05/12 01:00:18;;;;;;;8.82;3.47;;;21.90;76.50;;;;;;5053960;28;20045;-55
2021/05/12 01:02:46;;;;;;;18.65;3.22;;;22.10;75.40;;;;;;5054133;28;20021;-53
2021/05/12 01:05:35;;;;;;;13.10;6.15;;;22.10;74.40;;;;;;5054102;28;20076;-55
2021/05/12 01:08:05;;;;;;;10.75;3.35;;;22.20;75.40;;;;;;5054904;28;20044;-58
2021/05/12 01:10:34;;;;;;;11.23;3.85;;;22.10;74.30;;;;;;5054066;28;20045;-59
2021/05/12 01:13:02;;;;;;;13.90;4.28;;;22.00;79.00;;;;;;5053616;28;20491;-51
2021/05/12 01:15:30;;;;;;;12.02;4.93;;;22.30;76.80;;;;;;5054223;28;20033;-55
2021/05/12 01:18:20;;;;;;;11.23;4.68;;;22.30;75.50;;;;;;5053928;28;20054;-47
2021/05/12 01:20:51;;;;;;;11.98;3.60;;;22.50;76.50;;;;;;5054419;28;20029;-53
2021/05/12 01:23:21;;;;;;;13.05;3.78;;;22.80;76.10;;;;;;5054232;28;20025;-53
2021/05/12 01:25:49;;;;;;;5.93;2.90;;;23.10;76.00;;;;;;5054149;28;20479;-54
2021/05/12 01:28:18;;;;;;;8.88;2.00;;;23.20;73.80;;;;;;5053719;28;20029;-57
2021/05/12 01:30:58;;;;;;;14.48;4.05;;;23.40;73.20;;;;;;5054033;28;20021;-58
2021/05/12 01:33:26;;;;;;;9.90;3.15;;;23.50;73.40;;;;;;5053752;28;20487;-52
2021/05/12 01:35:54;;;;;;;13.95;2.92;;;23.50;73.40;;;;;;5053966;28;20044;-56
2021/05/12 01:38:22;;;;;;;15.13;3.03;;;23.40;73.70;;;;;;5052561;28;20187;-57
2021/05/12 01:40:50;;;;;;;15.07;3.00;;;23.40;73.10;;;;;;5053670;28;20033;-58
2021/05/12 01:43:17;;;;;;;9.48;2.53;;;23.30;72.90;;;;;;5053385;28;20025;-55
2021/05/12 01:45:46;;;;;;;10.43;1.80;;;23.30;73.80;;;;;;5053269;28;20036;-54
2021/05/12 01:48:13;;;;;;;8.65;1.60;;;23.30;73.30;;;;;;5053347;28;20420;-56
2021/05/12 01:50:41;;;;;;;8.40;1.98;;;23.40;73.40;;;;;;5053189;28;20445;-57
2021/05/12 01:53:09;;;;;;;9.10;2.03;;;23.50;73.20;;;;;;5053434;28;20037;-57
2021/05/12 01:55:36;;;;;;;11.23;1.67;;;23.50;73.30;;;;;;5053517;28;20375;-58
2021/05/12 01:58:04;;;;;;;8.63;1.60;;;23.40;71.80;;;;;;5052775;28;20036;-56
2021/05/12 02:00:35;;;;;;;9.07;1.88;;;23.50;73.10;;;;;;5067168;28;20025;-58
2021/05/12 02:03:08;;;;;;;16.37;2.67;;;23.70;73.00;;;;;;5050936;28;20059;-63
2021/05/12 02:05:36;;;;;;;11.15;2.53;;;23.70;73.80;;;;;;5051447;28;20017;-58
2021/05/12 02:08:06;;;;;;;9.88;1.80;;;23.70;72.90;;;;;;5050797;28;20036;-58
2021/05/12 02:10:40;;;;;;;8.80;2.10;;;23.80;72.90;;;;;;5048990;28;20045;-57
2021/05/12 02:13:09;;;;;;;18.77;3.17;;;23.80;74.00;;;;;;5048819;28;20349;-61
2021/05/12 02:15:36;;;;;;;11.68;2.20;;;23.50;75.30;;;;;;5049115;28;20482;-55
2021/05/12 02:18:04;;;;;;;5.63;2.70;;;23.40;75.60;;;;;;5047589;28;20025;-53
2021/05/12 02:20:34;;;;;;;11.70;2.50;;;23.40;77.00;;;;;;5050836;28;20025;-57
2021/05/12 02:23:04;;;;;;;7.63;2.15;;;23.40;76.00;;;;;;5051223;28;20032;-58
2021/05/12 02:25:32;;;;;;;5.47;2.33;;;23.40;76.40;;;;;;5050035;28;20021;-59
2021/05/12 02:27:59;;;;;;;7.57;1.92;;;23.40;75.90;;;;;;5052594;28;20036;-53
2021/05/12 02:30:28;;;;;;;5.70;2.13;;;23.50;75.90;;;;;;5052954;28;20059;-60
2021/05/12 02:32:58;;;;;;;8.15;2.00;;;23.50;75.80;;;;;;5052600;28;20454;-52
2021/05/12 02:35:25;;;;;;;18.60;2.90;;;23.90;73.20;;;;;;5052777;28;20075;-52
2021/05/12 02:37:54;;;;;;;18.52;3.28;;;24.10;72.80;;;;;;5064919;28;20058;-56
2021/05/12 02:40:22;;;;;;;11.30;3.30;;;24.20;72.20;;;;;;5072715;28;20047;-60
2021/05/12 02:42:52;;;;;;;11.05;2.42;;;24.30;72.00;;;;;;5072602;28;20078;-55
2021/05/12 02:45:20;;;;;;;8.65;2.58;;;24.30;71.80;;;;;;5072415;28;20020;-55
2021/05/12 02:47:57;;;;;;;9.27;2.47;;;24.30;71.30;;;;;;5071954;28;20028;-55
2021/05/12 02:50:40;;;;;;;13.38;2.25;;;24.40;71.40;;;;;;5072923;28;20058;-53
2021/05/12 02:53:09;;;;;;;12.00;2.25;;;24.40;71.30;;;;;;5072630;28;20033;-54
2021/05/12 02:55:38;;;;;;;17.40;2.92;;;24.50;70.60;;;;;;5072395;28;20016;-55
2021/05/12 02:58:07;;;;;;;7.90;1.73;;;24.60;70.40;;;;;;5071755;28;20100;-48
2021/05/12 03:00:37;;;;;;;8.43;2.08;;;24.70;70.00;;;;;;5070619;28;20024;-50
2021/05/12 03:03:05;;;;;;;10.75;2.95;;;24.70;70.30;;;;;;5072457;28;20079;-50
2021/05/12 03:05:33;;;;;;;9.45;2.17;;;24.70;70.70;;;;;;5086166;28;20016;-52
2021/05/12 03:08:01;;;;;;;17.05;2.72;;;24.70;70.40;;;;;;5092417;28;20024;-47
2021/05/12 03:10:31;;;;;;;15.07;2.35;;;24.70;71.10;;;;;;5092355;28;20055;-53
2021/05/12 03:12:59;;;;;;;12.65;2.45;;;24.70;70.70;;;;;;5092535;28;20032;-50
2021/05/12 03:15:27;;;;;;;7.85;2.10;;;24.60;70.20;;;;;;5091672;28;20115;-53
2021/05/12 03:17:56;;;;;;;9.77;2.25;;;24.60;70.40;;;;;;5092056;28;20020;-54
2021/05/12 03:20:26;;;;;;;19.17;2.47;;;24.60;70.80;;;;;;5092620;28;20454;-59
2021/05/12 03:22:53;;;;;;;11.95;2.15;;;24.70;71.60;;;;;;5092426;28;20137;-58
2021/05/12 03:25:21;;;;;;;17.65;2.03;;;24.70;71.10;;;;;;5091339;28;20428;-63
2021/05/12 03:27:49;;;;;;;9.77;2.03;;;24.70;71.20;;;;;;5092334;28;20024;-56
2021/05/12 03:30:23;;;;;;;13.95;2.60;;;24.70;71.20;;;;;;5092074;28;20106;-52
2021/05/12 03:32:50;;;;;;;16.33;2.53;;;24.70;70.40;;;;;;5091952;28;20043;-57
2021/05/12 03:35:19;;;;;;;10.15;2.00;;;24.70;71.00;;;;;;5091838;28;20020;-62
2021/05/12 03:37:47;;;;;;;18.17;4.60;;;24.70;71.50;;;;;;5091968;28;20024;-60
2021/05/12 03:40:15;;;;;;;7.90;2.25;;;24.70;71.30;;;;;;5091337;28;20020;-53
2021/05/12 03:42:43;;;;;;;9.95;2.30;;;24.70;70.90;;;;;;5092492;28;20028;-50
2021/05/12 03:45:11;;;;;;;10.05;2.17;;;24.70;71.00;;;;;;5091714;28;20051;-54
2021/05/12 03:47:38;;;;;;;11.00;2.15;;;24.70;71.10;;;;;;5092080;28;20077;-51
2021/05/12 03:50:08;;;;;;;12.73;2.42;;;24.80;70.10;;;;;;5091902;28;20031;-51
2021/05/12 03:52:35;;;;;;;14.10;2.40;;;24.90;70.20;;;;;;5091560;28;20060;-49
2021/05/12 03:55:08;;;;;;;9.35;1.95;;;24.80;70.30;;;;;;5092143;28;20301;-52
2021/05/12 03:57:36;;;;;;;15.73;2.20;;;24.80;70.10;;;;;;5092132;28;20020;-55
2021/05/12 04:00:06;;;;;;;9.20;1.75;;;24.80;70.40;;;;;;5091548;28;20028;-57
2021/05/12 04:02:36;;;;;;;13.98;2.28;;;24.80;69.80;;;;;;5091787;28;20039;-52
2021/05/12 04:05:04;;;;;;;12.43;2.38;;;24.80;69.40;;;;;;5091766;28;20024;-47
2021/05/12 04:07:31;;;;;;;8.02;1.90;;;24.80;70.50;;;;;;5091087;28;20165;-53
2021/05/12 04:09:59;;;;;;;16.23;3.60;;;24.80;70.90;;;;;;5091791;28;20077;-59
2021/05/12 04:12:26;;;;;;;8.30;2.35;;;24.80;70.30;;;;;;5091925;28;20040;-57
2021/05/12 04:14:53;;;;;;;12.50;2.75;;;24.80;70.10;;;;;;5092020;28;20129;-55
2021/05/12 04:17:21;;;;;;;16.98;2.17;;;24.90;70.70;;;;;;5090478;28;20105;-52
2021/05/12 04:19:48;;;;;;;20.67;3.08;;;24.90;70.90;;;;;;5091598;28;20024;-52
2021/05/12 04:22:16;;;;;;;33.47;4.28;;;24.80;70.80;;;;;;5091674;28;20020;-58
2021/05/12 04:24:43;;;;;;;29.63;4.53;;;24.70;72.40;;;;;;5092005;28;20036;-60
2021/05/12 04:27:12;;;;;;;18.48;3.72;;;24.50;74.20;;;;;;5094503;28;20027;-61
2021/05/12 04:29:40;;;;;;;16.88;3.30;;;24.40;74.30;;;;;;5095763;28;20446;-59
2021/05/12 04:32:08;;;;;;;16.95;4.60;;;24.50;74.50;;;;;;5095664;28;20115;-55
2021/05/12 04:34:35;;;;;;;33.67;5.15;;;24.60;73.80;;;;;;5094709;28;20123;-58
2021/05/12 04:37:03;;;;;;;30.08;5.55;;;24.60;73.90;;;;;;5095854;28;20027;-55
2021/05/12 04:39:31;;;;;;;32.58;3.78;;;24.80;73.50;;;;;;5095205;28;20336;-48
2021/05/12 04:41:58;;;;;;;36.90;4.70;;;24.90;71.90;;;;;;5094862;28;20385;-48
2021/05/12 04:44:25;;;;;;;19.35;3.70;;;25.10;71.70;;;;;;5094735;28;20024;-50
2021/05/12 04:46:55;;;;;;;29.17;3.95;;;25.20;71.30;;;;;;5094733;28;20024;-49
2021/05/12 04:49:23;;;;;;;34.35;6.20;;;25.30;71.10;;;;;;5094198;28;20477;-53
2021/05/12 04:51:51;;;;;;;19.58;3.47;;;25.50;70.70;;;;;;5094563;28;20111;-52
2021/05/12 04:54:18;;;;;;;28.02;3.70;;;25.60;70.10;;;;;;5071824;28;20081;-52
2021/05/12 04:56:46;;;;;;;20.52;4.13;;;25.60;69.40;;;;;;5069774;28;20083;-50
2021/05/12 04:59:13;;;;;;;18.73;3.75;;;25.70;69.60;;;;;;5072541;28;20070;-54
2021/05/12 05:01:40;;;;;;;15.23;3.40;;;25.80;69.50;;;;;;5072005;28;20032;-51
2021/05/12 05:04:08;;;;;;;18.98;3.58;;;25.80;69.20;;;;;;5069875;28;20052;-52
2021/05/12 05:06:35;;;;;;;22.92;3.72;;;25.80;69.30;;;;;;5069240;28;20024;-46
2021/05/12 05:09:06;;;;;;;24.83;3.72;;;25.80;69.10;;;;;;5069575;28;20498;-49
2021/05/12 05:11:34;;;;;;;9.43;2.20;;;25.70;69.00;;;;;;5073564;28;20505;-51
2021/05/12 05:14:01;;;;;;;11.30;3.13;;;25.80;69.10;;;;;;5072996;28;20170;-52
2021/05/12 05:16:29;;;;;;;14.20;3.88;;;25.70;69.20;;;;;;5070630;28;20459;-51
2021/05/12 05:18:56;;;;;;;14.32;2.88;;;25.80;69.20;;;;;;5073327;28;20129;-51
2021/05/12 05:21:24;;;;;;;9.63;2.38;;;25.80;68.70;;;;;;5068422;28;20024;-48
2021/05/12 05:23:52;;;;;;;13.95;3.13;;;25.80;69.00;;;;;;5073015;28;20159;-55
2021/05/12 05:26:19;;;;;;;12.30;3.10;;;25.70;69.10;;;;;;5070629;28;20039;-47
2021/05/12 05:28:47;;;;;;;9.90;3.17;;;25.70;69.30;;;;;;5073202;28;20048;-49
2021/05/12 05:31:14;;;;;;;15.80;3.25;;;25.70;70.50;;;;;;5072972;28;20032;-57
2021/05/12 05:33:42;;;;;;;15.50;2.95;;;25.70;69.40;;;;;;5072864;28;20477;-53
2021/05/12 05:36:09;;;;;;;13.48;3.08;;;25.60;69.30;;;;;;5070806;28;20158;-52
2021/05/12 05:38:36;;;;;;;14.48;3.10;;;25.60;69.90;;;;;;5073149;28;20031;-56
2021/05/12 05:41:04;;;;;;;10.73;2.90;;;25.50;69.80;;;;;;5072759;28;20035;-56
2021/05/12 05:43:33;;;;;;;17.63;3.95;;;25.50;69.80;;;;;;5071087;28;20425;-55
2021/05/12 05:46:00;;;;;;;10.40;3.30;;;25.40;69.30;;;;;;5072837;28;20070;-59
2021/05/12 05:48:27;;;;;;;7.32;2.47;;;25.30;69.30;;;;;;5073416;28;20100;-55
2021/05/12 05:50:56;;;;;;;9.20;2.40;;;25.10;70.40;;;;;;5073273;28;20040;-60
2021/05/12 05:53:23;;;;;;;12.32;2.20;;;24.90;70.60;;;;;;5072836;28;20037;-58
2021/05/12 05:55:51;;;;;;;15.88;2.80;;;24.80;71.40;;;;;;5073038;28;20378;-53
2021/05/12 05:58:19;;;;;;;11.35;2.90;;;24.60;72.10;;;;;;5073083;28;20139;-54
2021/05/12 06:00:47;;;;;;;14.18;3.80;;;24.40;73.00;;;;;;5073046;28;20017;-60
2021/05/12 06:03:14;;;;;;;11.40;2.92;;;24.20;73.70;;;;;;5070856;28;20025;-55
2021/05/12 06:05:50;;;;;;;9.25;2.42;;;24.00;74.00;;;;;;5071507;28;20371;-57
2021/05/12 06:08:18;;;;;;;12.10;2.33;;;23.90;74.60;;;;;;5073096;28;20032;-56
2021/05/12 06:10:45;;;;;;;12.02;2.65;;;23.80;75.40;;;;;;5072897;28;20036;-58
2021/05/12 06:13:12;;;;;;;10.35;2.45;;;23.70;76.20;;;;;;5073243;28;20079;-56
2021/05/12 06:15:40;;;;;;;15.02;3.03;;;23.50;76.70;;;;;;5064815;28;20109;-50
2021/05/12 06:18:08;;;;;;;7.07;1.92;;;23.40;77.20;;;;;;5072614;28;20120;-53
2021/05/12 06:20:36;;;;;;;9.13;2.60;;;23.30;78.30;;;;;;5069141;28;20154;-49
2021/05/12 06:23:05;;;;;;;10.27;2.40;;;23.20;78.40;;;;;;5073522;28;20028;-47
2021/05/12 06:25:33;;;;;;;8.38;2.13;;;23.10;78.70;;;;;;5069759;28;20028;-48
2021/05/12 06:28:00;;;;;;;8.48;1.90;;;23.10;79.40;;;;;;5071408;28;20039;-54
2021/05/12 06:30:27;;;;;;;13.35;2.20;;;23.00;79.80;;;;;;5070137;28;20031;-49
2021/05/12 06:32:55;;;;;;;8.32;2.10;;;22.90;79.70;;;;;;5071707;28;20032;-53
2021/05/12 06:35:22;;;;;;;11.43;2.10;;;22.80;80.40;;;;;;5069874;28;20051;-49
2021/05/12 06:37:50;;;;;;;6.88;2.00;;;22.80;80.90;;;;;;5071127;28;20031;-46
2021/05/12 06:40:17;;;;;;;9.63;2.03;;;22.80;80.80;;;;;;5071512;28;20028;-49
2021/05/12 06:42:45;;;;;;;13.57;2.03;;;22.40;81.70;;;;;;5067432;28;20416;-48
2021/05/12 06:45:13;;;;;;;32.15;8.90;;;21.90;83.20;;;;;;5069765;28;20041;-49
2021/05/12 06:47:42;;;;;;;10.02;2.13;;;21.90;84.40;;;;;;5071177;28;20471;-48
2021/05/12 06:50:10;;;;;;;9.10;2.38;;;21.80;84.80;;;;;;5069949;28;20108;-49
2021/05/12 06:52:37;;;;;;;8.88;2.55;;;21.70;85.70;;;;;;5069648;28;20138;-56
2021/05/12 06:55:06;;;;;;;9.18;2.25;;;21.70;84.80;;;;;;5066220;28;20102;-49
2021/05/12 06:57:33;;;;;;;25.08;10.50;;;21.70;85.10;;;;;;5070837;28;20390;-56
2021/05/12 07:00:01;;;;;;;27.00;12.68;;;21.80;85.30;;;;;;5071724;28;20166;-56
2021/05/12 07:02:28;;;;;;;24.58;14.75;;;22.00;84.50;;;;;;5071310;28;20028;-57
2021/05/12 07:04:55;;;;;;;16.98;5.07;;;22.10;84.10;;;;;;5071573;28;20107;-59
2021/05/12 07:07:23;;;;;;;24.23;15.90;;;22.10;83.80;;;;;;5071715;28;20057;-58
2021/05/12 07:09:50;;;;;;;23.08;16.85;;;22.10;84.30;;;;;;5071667;28;20089;-56
2021/05/12 07:12:18;;;;;;;24.67;17.45;;;22.20;83.70;;;;;;5072031;28;20106;-56
2021/05/12 07:14:45;;;;;;;18.85;7.97;;;22.20;83.90;;;;;;5071587;28;20032;-58
2021/05/12 07:17:13;;;;;;;24.45;14.50;;;22.20;84.40;;;;;;5071658;28;20024;-56
2021/05/12 07:19:40;;;;;;;26.17;22.85;;;22.20;84.60;;;;;;5071144;28;20111;-59
2021/05/12 07:22:07;;;;;;;19.70;13.35;;;22.20;84.60;;;;;;5071812;28;20028;-57
2021/05/12 07:24:35;;;;;;;24.38;15.05;;;22.10;84.40;;;;;;5069379;28;20471;-60
2021/05/12 07:27:03;;;;;;;17.55;8.13;;;22.10;84.60;;;;;;5070031;28;20075;-56
2021/05/12 07:29:30;;;;;;;24.83;13.90;;;22.10;85.20;;;;;;5071536;28;20028;-58
2021/05/12 07:31:57;;;;;;;24.45;15.60;;;22.10;84.80;;;;;;5071424;28;20047;-59
2021/05/12 07:34:25;;;;;;;28.55;15.45;;;22.10;84.80;;;;;;5070678;28;20048;-58
2021/05/12 07:36:52;;;;;;;15.32;8.65;;;22.10;85.00;;;;;;5070631;28;20331;-60
2021/05/12 07:39:19;;;;;;;19.13;10.20;;;22.00;85.10;;;;;;5070914;28;20029;-58
2021/05/12 07:41:50;;;;;;;18.52;11.73;;;22.00;85.40;;;;;;5070251;28;20096;-59
2021/05/12 07:44:18;;;;;;;22.27;8.38;;;22.00;86.20;;;;;;5071470;28;20032;-61
2021/05/12 07:46:45;;;;;;;29.80;17.55;;;22.00;85.50;;;;;;5070677;28;20035;-61
2021/05/12 07:49:12;;;;;;;19.38;7.82;;;22.00;85.40;;;;;;5071611;28;20062;-58
2021/05/12 07:51:40;;;;;;;21.42;7.82;;;22.00;86.00;;;;;;5071263;28;20024;-57
2021/05/12 07:54:07;;;;;;;15.77;6.25;;;22.00;86.20;;;;;;5070565;28;20055;-58
2021/05/12 07:56:35;;;;;;;15.07;4.28;;;22.00;86.40;;;;;;5071104;28;20027;-56
2021/05/12 07:59:02;;;;;;;21.52;5.20;;;21.90;86.10;;;;;;5071184;28;20027;-56
2021/05/12 08:01:42;;;;;;;31.55;5.80;;;22.00;87.10;;;;;;5072547;28;20029;-60
2021/05/12 08:04:09;;;;;;;27.38;5.70;;;22.00;87.50;;;;;;5074924;28;20036;-58
2021/05/12 08:06:37;;;;;;;18.33;4.03;;;22.00;87.20;;;;;;5074294;28;20039;-57
2021/05/12 08:09:09;;;;;;;17.90;4.55;;;22.00;86.80;;;;;;5075006;28;20036;-60
2021/05/12 08:11:36;;;;;;;;;;;21.90;86.50;;;;;;5075395;28;20048;-56
2021/05/12 08:14:04;;;;;;;16.25;4.63;;;21.90;86.50;;;;;;5074717;28;19944;-61
2021/05/12 08:16:32;;;;;;;21.45;10.32;;;21.90;86.70;;;;;;5074472;28;20025;-59
2021/05/12 08:18:59;;;;;;;32.78;18.85;;;21.80;86.70;;;;;;5074931;28;20028;-57
2021/05/12 08:21:26;;;;;;;24.85;12.35;;;21.80;86.60;;;;;;5074800;28;20051;-61
2021/05/12 08:23:55;;;;;;;25.85;13.75;;;21.70;86.60;;;;;;5075092;28;20020;-61
2021/05/12 08:26:22;;;;;;;19.17;11.00;;;21.70;86.80;;;;;;5074565;28;20416;-57
2021/05/12 08:28:49;;;;;;;24.45;16.50;;;21.70;87.10;;;;;;5074461;28;20042;-59
2021/05/12 08:31:18;;;;;;;20.90;12.60;;;21.60;86.90;;;;;;5073689;28;20459;-60
2021/05/12 08:33:46;;;;;;;29.15;22.23;;;21.60;87.10;;;;;;5074588;28;20043;-60
2021/05/12 08:36:14;;;;;;;26.65;20.60;;;21.60;87.20;;;;;;5073475;28;20028;-60
2021/05/12 08:38:46;;;;;;;23.02;11.52;;;21.60;87.40;;;;;;5073973;28;20387;-61
2021/05/12 08:41:15;;;;;;;31.13;24.75;;;21.60;87.70;;;;;;5073822;28;20416;-59
2021/05/12 08:43:43;;;;;;;21.17;11.77;;;21.50;87.90;;;;;;5074417;28;20036;-60
2021/05/12 08:46:13;;;;;;;21.33;12.57;;;21.50;88.40;;;;;;5074651;28;20074;-55
2021/05/12 08:48:41;;;;;;;19.88;10.98;;;21.50;88.80;;;;;;5074440;28;20033;-58
2021/05/12 08:51:10;;;;;;;32.42;13.02;;;21.50;89.30;;;;;;5075235;28;20021;-55
2021/05/12 08:53:38;;;;;;;21.48;8.65;;;21.50;89.50;;;;;;5074782;28;20478;-59
2021/05/12 08:56:07;;;;;;;27.02;10.77;;;21.50;89.80;;;;;;5074580;28;20062;-54
2021/05/12 08:58:34;;;;;;;18.60;9.50;;;21.50;89.70;;;;;;5074564;28;20428;-54
2021/05/12 09:01:02;;;;;;;21.95;9.85;;;21.50;90.90;;;;;;5074059;28;20387;-57
2021/05/12 09:03:29;;;;;;;22.20;10.85;;;21.50;90.70;;;;;;5074376;28;20054;-54
2021/05/12 09:05:58;;;;;;;19.05;9.18;;;21.50;90.80;;;;;;5074846;28;20107;-56
2021/05/12 09:08:27;;;;;;;15.73;7.57;;;21.40;91.00;;;;;;5074235;28;20043;-54
2021/05/12 09:10:54;;;;;;;18.65;6.95;;;21.40;90.60;;;;;;5065250;28;20052;-59
2021/05/12 09:13:36;;;;;;;16.52;6.40;;;21.40;90.60;;;;;;5069742;28;20108;-58
2021/05/12 09:16:31;;;;;;;20.92;7.68;;;21.40;90.70;;;;;;5066719;28;20021;-58
2021/05/12 09:19:02;;;;;;;19.77;5.32;;;21.50;91.30;;;;;;5065320;28;20028;-56
2021/05/12 09:21:57;;;;;;;18.38;6.40;;;21.50;91.00;;;;;;5068049;28;20382;-55
2021/05/12 09:24:39;;;;;;;15.35;6.00;;;21.50;91.60;;;;;;5066134;28;20037;-56
2021/05/12 09:27:09;;;;;;;;;;;21.50;91.90;;;;;;5067872;28;20021;-60
2021/05/12 09:29:42;;;;;;;20.52;4.72;;;21.50;91.70;;;;;;5063862;28;19939;-55
2021/05/12 09:32:13;;;;;;;21.65;4.40;;;21.50;91.50;;;;;;5062755;28;20020;-58
2021/05/12 09:35:03;;;;;;;46.45;15.57;;;21.40;91.90;;;;;;5063063;28;20027;-59
2021/05/12 09:37:42;;;;;;;18.08;6.40;;;21.50;91.00;;;;;;5066477;28;20043;-60
2021/05/12 09:40:19;;;;;;;17.08;4.57;;;21.50;91.00;;;;;;5061165;28;20131;-64
2021/05/12 09:43:02;;;;;;;10.75;2.90;;;21.50;91.10;;;;;;5062938;28;20720;-55
2021/05/12 09:45:37;;;;;;;16.60;4.53;;;21.30;90.50;;;;;;5067843;28;20039;-55
2021/05/12 09:48:05;;;;;;;20.13;4.25;;;21.30;90.90;;;;;;5065509;28;20036;-56
2021/05/12 09:50:36;;;;;;;11.20;3.30;;;21.30;91.20;;;;;;5064988;28;20055;-56
2021/05/12 09:53:08;;;;;;;13.63;3.42;;;21.30;91.20;;;;;;5068181;28;20036;-52
2021/05/12 09:55:46;;;;;;;20.17;4.45;;;21.30;91.30;;;;;;5068500;28;20474;-54
2021/05/12 09:58:24;;;;;;;14.45;4.50;;;21.30;91.40;;;;;;5068848;28;20029;-54
2021/05/12 10:00:52;;;;;;;20.73;3.60;;;21.20;91.40;;;;;;5066537;28;20025;-60
2021/05/12 10:03:32;;;;;;;18.40;4.00;;;21.30;91.80;;;;;;5070984;28;20052;-53
2021/05/12 10:06:04;;;;;;;13.48;3.15;;;21.30;90.90;;;;;;5069550;28;20024;-52
2021/05/12 10:08:35;;;;;;;23.95;3.42;;;21.30;91.80;;;;;;5070434;28;20021;-52
2021/05/12 10:11:12;;;;;;;10.97;2.70;;;21.30;91.40;;;;;;5067902;28;20052;-54
2021/05/12 10:13:40;;;;;;;11.95;3.10;;;21.30;92.30;;;;;;5070420;28;20063;-54
2021/05/12 10:16:10;;;;;;;10.20;2.78;;;21.30;92.40;;;;;;5068581;28;20040;-52
2021/05/12 10:18:38;;;;;;;12.57;2.72;;;21.30;91.70;;;;;;5069157;28;20028;-55
2021/05/12 10:21:09;;;;;;;12.20;2.35;;;21.30;91.90;;;;;;5067495;28;20379;-53
2021/05/12 10:23:37;;;;;;;10.45;2.80;;;21.20;91.40;;;;;;5070077;28;20031;-54
2021/05/12 10:26:07;;;;;;;16.75;3.08;;;21.20;91.80;;;;;;5070512;28;20104;-56
2021/05/12 10:28:41;;;;;;;18.23;3.75;;;21.10;91.20;;;;;;5070144;28;21245;-60
2021/05/12 10:31:11;;;;;;;13.98;2.75;;;21.10;91.20;;;;;;5066391;28;20028;-58
2021/05/12 10:33:52;;;;;;;14.90;2.55;;;21.10;91.00;;;;;;5068690;28;20353;-64
2021/05/12 10:36:20;;;;;;;26.23;10.95;;;21.10;91.20;;;;;;5069178;28;20485;-57
2021/05/12 10:38:49;;;;;;;13.57;4.60;;;21.10;91.20;;;;;;5070352;28;20032;-47
2021/05/12 10:41:45;;;;;;;17.00;5.72;;;21.10;91.30;;;;;;5067719;28;20024;-52
2021/05/12 10:44:20;;;;;;;14.80;5.35;;;21.00;90.70;;;;;;5068052;28;20017;-54
2021/05/12 10:47:08;;;;;;;17.23;7.38;;;21.10;90.70;;;;;;5088304;28;20077;-53
2021/05/12 10:49:37;;;;;;;12.85;5.38;;;21.00;90.50;;;;;;5093375;28;20054;-55
2021/05/12 10:52:09;;;;;;;8.05;3.65;;;21.10;90.80;;;;;;5093012;28;20028;-51
2021/05/12 10:54:48;;;;;;;;;;;21.10;90.60;;;;;;5093630;28;20114;-56
2021/05/12 10:57:36;;;;;;;13.52;4.20;;;21.10;90.80;;;;;;5092653;28;19949;-54
2021/05/12 11:00:05;;;;;;;12.30;4.57;;;21.00;90.80;;;;;;5092274;28;20488;-56
2021/05/12 11:03:04;;;;;;;14.60;5.72;;;21.00;91.00;;;;;;5063689;28;20111;-52
2021/05/12 11:05:43;;;;;;;21.95;7.75;;;21.00;90.80;;;;;;5033186;28;20032;-53
2021/05/12 11:08:15;;;;;;;14.98;7.32;;;21.00;90.70;;;;;;5072579;28;20032;-51
2021/05/12 11:11:01;;;;;;;30.58;8.57;;;21.00;90.90;;;;;;5069064;28;20048;-60
2021/05/12 11:13:31;;;;;;;23.70;9.40;;;21.00;90.80;;;;;;5064577;28;20376;-54
2021/05/12 11:16:01;;;;;;;22.45;9.30;;;20.90;90.80;;;;;;5064043;28;20051;-50
2021/05/12 11:18:37;;;;;;;25.42;10.35;;;21.00;90.80;;;;;;5068770;28;20028;-54
2021/05/12 11:21:26;;;;;;;22.65;10.20;;;20.90;90.80;;;;;;5067160;28;20925;-51
2021/05/12 11:24:06;;;;;;;28.25;9.95;;;21.00;90.80;;;;;;5069266;28;20389;-47
2021/05/12 11:31:26;;;;;;;24.83;11.25;;;20.80;90.80;;;;;;5069389;28;20486;-49
2021/05/12 11:32:02;;;;;;;27.33;11.43;;;20.90;90.90;;;;;;5069595;28;20032;-51
2021/05/12 11:34:30;;;;;;;30.52;12.27;;;20.90;90.80;;;;;;5065969;28;20040;-48
2021/05/12 11:37:13;;;;;;;30.88;11.40;;;20.80;90.80;;;;;;5064830;28;20025;-54
2021/05/12 11:39:41;;;;;;;30.58;12.55;;;20.80;90.80;;;;;;5067485;28;20103;-53
2021/05/12 11:42:25;;;;;;;21.25;10.40;;;20.80;90.70;;;;;;5069415;28;20108;-50
2021/05/12 11:45:16;;;;;;;22.23;9.95;;;20.80;90.70;;;;;;5068286;28;20042;-47
2021/05/12 11:47:57;;;;;;;20.48;9.38;;;20.80;90.70;;;;;;5067739;28;20051;-49
2021/05/12 11:50:29;;;;;;;27.40;10.48;;;20.80;90.70;;;;;;5069208;28;20108;-50
2021/05/12 11:52:57;;;;;;;;;;;20.70;90.70;;;;;;5067401;28;20139;-49
2021/05/12 11:55:32;;;;;;;20.98;9.45;;;20.70;90.70;;;;;;5064736;28;20610;-51
2021/05/12 11:58:01;;;;;;;21.70;10.07;;;20.70;90.70;;;;;;5068538;28;20024;-53
2021/05/12 12:00:34;;;;;;;20.15;8.88;;;20.70;90.70;;;;;;5068653;28;20096;-48
2021/05/12 12:03:04;;;;;;;20.17;8.85;;;20.70;90.70;;;;;;5065054;28;20082;-50
2021/05/12 12:05:41;;;;;;;20.42;8.82;;;20.70;90.70;;;;;;5065610;28;20028;-50
2021/05/12 12:08:16;;;;;;;19.75;8.38;;;20.70;90.60;;;;;;5067154;28;20028;-52
2021/05/12 12:10:44;;;;;;;18.25;8.85;;;20.70;90.60;;;;;;5062850;28;20135;-49
2021/05/12 12:13:14;;;;;;;21.50;8.50;;;20.70;90.60;;;;;;5068758;28;20501;-48
2021/05/12 12:15:43;;;;;;;18.15;9.05;;;20.70;90.60;;;;;;5063913;28;20029;-48
2021/05/12 12:18:11;;;;;;;16.58;8.23;;;20.70;90.50;;;;;;5069139;28;20024;-54
2021/05/12 12:20:39;;;;;;;25.10;9.10;;;20.70;90.60;;;;;;5065141;28;20024;-49
2021/05/12 12:23:07;;;;;;;20.48;8.20;;;20.70;90.50;;;;;;5067946;28;20475;-48
2021/05/12 12:25:51;;;;;;;25.05;8.85;;;20.70;90.50;;;;;;5065708;28;20147;-49
2021/05/12 12:28:18;;;;;;;13.35;7.00;;;20.70;90.50;;;;;;5065632;28;20029;-44
2021/05/12 12:30:46;;;;;;;17.40;8.30;;;20.70;90.50;;;;;;5068057;28;20025;-48
2021/05/12 12:33:13;;;;;;;19.38;7.38;;;20.70;90.40;;;;;;5069233;28;20046;-50
2021/05/12 12:36:00;;;;;;;15.90;6.82;;;20.70;90.40;;;;;;5061420;28;20032;-55
2021/05/12 12:38:30;;;;;;;19.48;8.35;;;20.60;90.40;;;;;;5066677;28;20030;-53
2021/05/12 12:40:57;;;;;;;16.52;7.13;;;20.60;90.40;;;;;;5068303;28;20028;-53
2021/05/12 12:43:35;;;;;;;13.63;6.38;;;20.60;90.30;;;;;;5068678;28;20364;-47
2021/05/12 12:46:03;;;;;;;17.95;6.82;;;20.60;90.40;;;;;;5062194;28;20032;-47
2021/05/12 12:48:30;;;;;;;19.48;6.93;;;20.60;90.40;;;;;;5069747;28;20024;-53
2021/05/12 12:50:57;;;;;;;17.33;7.15;;;20.60;90.30;;;;;;5072313;28;20033;-47
2021/05/12 12:53:29;;;;;;;16.85;6.85;;;20.60;90.30;;;;;;5071837;28;20036;-51
2021/05/12 12:56:07;;;;;;;18.33;6.68;;;20.60;90.30;;;;;;5068637;28;20028;-51